Aérodrome :
LOGIN :

S'inscrire | Disclaimer

   EN    FR    IT 

 










Légende :    VFR   VFR Marginal   IFR   IFR Intensif   IFR Très Intensif
Visi : 
Plafond : 
>= 8 km
>= 3000ft
5 à 8 km
1000 à 3000 ft
1500m à 5 km
500 à 1000 ft
800 à 1500m
200 à 500 ft
< 800m
< 200 ft
Symboles :   Orages  Brouillard  Fortes neiges  Fortes précipitations  Vent > 20 kt
SIGMETs :   Divers  Orages  Givrage  Turbulence  Onde Orograph.  Cendres Volcan.






- Altitude de l'aérodrome : 640 ft
- Code IATA : AOC


EDAC - Altenburg-Nobitz

DERNIER METAR :
  • 221120Z 34003KT 240V040 CAVOK 17/10 Q1024

METARs EXPIRÉS :
  • 221050Z 32004KT 280V360 CAVOK 17/11 Q1025
  • 221020Z 31003KT 280V340 CAVOK 16/11 Q1025
  • 220950Z VRB02KT CAVOK 16/11 Q1025
  • 220920Z VRB01KT CAVOK 16/11 Q1024
  • 220850Z 22003KT 180V250 CAVOK 14/12 Q1025

TAF TAF EDAC
Valide du 22 à 09h jusqu'au 22 à 15h UTC


220803Z 2209/2215 VRB03KT CAVOK



MET'MAP, la Météo Aéronautique d'un coup d'oeil ! - Copyright ORBIFLY Décembre 2007 - Disclaimer

ORBIFLY MET'MAP TEAM :

Programmation & Développement : Alexandra Zaïnal
Conception & Développement : Baudouin d'Aumeries
Co-Programmation & Développement : Marc-Olivier Méhu
Soutien technique & logistique : Manuel Goepfert

Contact : metmap@orbifly.com




SOURCES & CREDITS :

   NOAA